Time;durP1;ratioP1;P1;durP2;ratioP2;P2;SDS_P1;SDS_P2;PMS_P1;PMS_P2;Temp;Humidity;BMP_temperature;BMP_pressure;BME280_temperature;BME280_humidity;BME280_pressure;Samples;Min_cycle;Max_cycle;Signal;HPM_P1;HPM_P2
2023/09/28 00:01:12;;;;;;;4.47;1.63;;;;;;;;;;4994847;28;20425;-69
2023/09/28 00:03:39;;;;;;;4.37;2.40;;;;;;;;;;4994342;28;20876;-69
2023/09/28 00:06:07;;;;;;;3.80;2.40;;;;;;;;;;4981393;28;20497;-69
2023/09/28 00:08:34;;;;;;;2.83;1.90;;;;;;;;;;4994295;28;20480;-70
2023/09/28 00:11:03;;;;;;;3.43;2.13;;;;;;;;;;4990721;28;20493;-69
2023/09/28 00:13:29;;;;;;;3.40;1.70;;;;;;;;;;4989609;28;20453;-69
2023/09/28 00:15:57;;;;;;;4.00;2.10;;;;;;;;;;4991287;28;20457;-69
2023/09/28 00:18:23;;;;;;;4.27;2.37;;;;;;;;;;4986757;28;20468;-69
2023/09/28 00:20:51;;;;;;;3.60;1.83;;;;;;;;;;4986128;28;20929;-69
2023/09/28 00:23:17;;;;;;;3.20;1.80;;;;;;;;;;4977245;28;20485;-69
2023/09/28 00:25:46;;;;;;;3.53;1.90;;;;;;;;;;4991399;28;20475;-69
2023/09/28 00:28:14;;;;;;;2.77;1.60;;;;;;;;;;4986949;28;20454;-70
2023/09/28 00:30:42;;;;;;;4.70;2.23;;;;;;;;;;4987912;28;20453;-69
2023/09/28 00:33:09;;;;;;;2.80;1.60;;;;;;;;;;4987197;28;20974;-69
2023/09/28 00:35:36;;;;;;;3.97;1.90;;;;;;;;;;4984061;28;20450;-70
2023/09/28 00:38:05;;;;;;;3.37;2.03;;;;;;;;;;4985842;28;20473;-70
2023/09/28 00:40:31;;;;;;;3.60;1.97;;;;;;;;;;4984481;28;20457;-69
2023/09/28 00:42:59;;;;;;;3.40;1.97;;;;;;;;;;4993400;28;20456;-69
2023/09/28 00:45:27;;;;;;;3.30;2.60;;;;;;;;;;4982616;28;20885;-69
2023/09/28 00:47:55;;;;;;;3.53;2.00;;;;;;;;;;4985887;28;20485;-69
2023/09/28 00:50:21;;;;;;;2.97;2.00;;;;;;;;;;4986198;28;20468;-68
2023/09/28 00:52:51;;;;;;;3.30;2.00;;;;;;;;;;4977334;28;20437;-69
2023/09/28 00:55:19;;;;;;;4.40;1.67;;;;;;;;;;4987303;28;20799;-70
2023/09/28 00:57:47;;;;;;;3.20;1.80;;;;;;;;;;4980041;28;20453;-69
2023/09/28 01:00:24;;;;;;;3.03;1.70;;;;;;;;;;4980483;28;20476;-70
2023/09/28 01:02:52;;;;;;;4.23;1.90;;;;;;;;;;4992871;28;20860;-69
2023/09/28 01:05:19;;;;;;;6.17;1.90;;;;;;;;;;4991862;28;20472;-69
2023/09/28 01:07:46;;;;;;;2.47;1.60;;;;;;;;;;4986253;28;20580;-69
2023/09/28 01:10:14;;;;;;;4.77;1.90;;;;;;;;;;4980504;28;20500;-70
2023/09/28 01:12:42;;;;;;;3.97;2.10;;;;;;;;;;4990938;28;20449;-69
2023/09/28 01:15:10;;;;;;;2.33;1.60;;;;;;;;;;4990121;28;20503;-70
2023/09/28 01:17:37;;;;;;;2.93;1.50;;;;;;;;;;4988738;28;20534;-70
2023/09/28 01:20:10;;;;;;;4.53;2.17;;;;;;;;;;4990775;28;20872;-69
2023/09/28 01:22:38;;;;;;;3.80;1.90;;;;;;;;;;4989538;28;20819;-69
2023/09/28 01:25:05;;;;;;;4.10;2.17;;;;;;;;;;4986282;28;20438;-70
2023/09/28 01:27:32;;;;;;;2.80;2.10;;;;;;;;;;4984031;28;20484;-70
2023/09/28 01:29:58;;;;;;;4.07;2.10;;;;;;;;;;4987454;28;20500;-69
2023/09/28 01:32:25;;;;;;;3.70;2.23;;;;;;;;;;4985327;28;20830;-70
2023/09/28 01:34:53;;;;;;;2.27;1.40;;;;;;;;;;4992592;28;20904;-70
2023/09/28 01:37:22;;;;;;;4.87;2.10;;;;;;;;;;4985452;28;20472;-69
2023/09/28 01:39:50;;;;;;;2.87;1.97;;;;;;;;;;4982503;28;20485;-69
2023/09/28 01:42:17;;;;;;;3.40;2.03;;;;;;;;;;4983160;28;20553;-70
2023/09/28 01:44:44;;;;;;;5.57;1.83;;;;;;;;;;4979999;28;21025;-70
2023/09/28 01:47:11;;;;;;;3.00;1.90;;;;;;;;;;4986018;28;20492;-69
2023/09/28 01:49:38;;;;;;;3.17;1.63;;;;;;;;;;4983319;28;20822;-70
2023/09/28 01:52:05;;;;;;;2.50;1.60;;;;;;;;;;4991544;28;20437;-70
2023/09/28 01:54:31;;;;;;;3.33;1.93;;;;;;;;;;4986785;28;20453;-69
2023/09/28 01:57:00;;;;;;;2.60;1.53;;;;;;;;;;4979700;28;20469;-70
2023/09/28 01:59:26;;;;;;;5.10;2.60;;;;;;;;;;4985014;28;20536;-70
2023/09/28 02:01:53;;;;;;;4.90;2.23;;;;;;;;;;4986545;28;20872;-69
2023/09/28 02:04:20;;;;;;;2.83;1.70;;;;;;;;;;4987133;28;20899;-70
2023/09/28 02:06:47;;;;;;;3.57;2.10;;;;;;;;;;4986947;28;20543;-69
2023/09/28 02:09:17;;;;;;;3.53;2.00;;;;;;;;;;4991884;28;20865;-69
2023/09/28 02:11:44;;;;;;;2.67;1.73;;;;;;;;;;4979403;28;21239;-69
2023/09/28 02:14:21;;;;;;;3.80;1.87;;;;;;;;;;4984881;28;20556;-71
2023/09/28 02:16:47;;;;;;;2.63;1.47;;;;;;;;;;4988542;28;20437;-70
2023/09/28 02:19:15;;;;;;;2.53;1.23;;;;;;;;;;4982902;28;21121;-70
2023/09/28 02:21:41;;;;;;;4.03;1.90;;;;;;;;;;4987263;28;20460;-70
2023/09/28 02:24:09;;;;;;;4.70;2.03;;;;;;;;;;4984590;28;20449;-69
2023/09/28 02:26:35;;;;;;;3.23;1.77;;;;;;;;;;4979647;28;20485;-69
2023/09/28 02:29:04;;;;;;;3.73;2.03;;;;;;;;;;4990460;28;20531;-69
2023/09/28 02:31:32;;;;;;;3.80;1.80;;;;;;;;;;4988587;28;20456;-69
2023/09/28 02:33:59;;;;;;;3.10;1.80;;;;;;;;;;4991359;28;20456;-69
2023/09/28 02:36:31;;;;;;;3.80;1.80;;;;;;;;;;4981807;28;20469;-69
2023/09/28 02:38:59;;;;;;;4.37;1.70;;;;;;;;;;4991910;28;20978;-69
2023/09/28 02:41:26;;;;;;;3.60;1.97;;;;;;;;;;4979028;28;20942;-69
2023/09/28 02:43:53;;;;;;;4.00;1.90;;;;;;;;;;4980986;28;20825;-69
2023/09/28 02:46:20;;;;;;;3.83;2.07;;;;;;;;;;4990987;28;20453;-69
2023/09/28 02:48:48;;;;;;;3.73;1.83;;;;;;;;;;4987696;28;20488;-69
2023/09/28 02:51:14;;;;;;;6.33;2.00;;;;;;;;;;4979052;28;20518;-69
2023/09/28 02:53:41;;;;;;;2.60;1.80;;;;;;;;;;4988744;28;20449;-69
2023/09/28 02:56:07;;;;;;;4.27;2.03;;;;;;;;;;4978736;28;20456;-71
2023/09/28 02:58:34;;;;;;;3.23;2.07;;;;;;;;;;4987153;28;20898;-69
2023/09/28 03:01:02;;;;;;;2.80;1.77;;;;;;;;;;4979303;28;20445;-69
2023/09/28 03:03:30;;;;;;;3.90;2.10;;;;;;;;;;4990985;28;20810;-69
2023/09/28 03:05:58;;;;;;;3.67;2.10;;;;;;;;;;4984912;28;20441;-69
2023/09/28 03:08:25;;;;;;;3.93;2.30;;;;;;;;;;4982053;28;20497;-70
2023/09/28 03:10:51;;;;;;;2.63;1.87;;;;;;;;;;4980202;28;20527;-70
2023/09/28 03:13:19;;;;;;;2.30;1.87;;;;;;;;;;4983780;28;20526;-69
2023/09/28 03:15:45;;;;;;;3.70;1.80;;;;;;;;;;4995189;28;20571;-70
2023/09/28 03:18:12;;;;;;;3.10;2.07;;;;;;;;;;4993703;28;20445;-70
2023/09/28 03:20:42;;;;;;;2.97;2.10;;;;;;;;;;4994240;28;20954;-69
2023/09/28 03:23:11;;;;;;;2.93;1.90;;;;;;;;;;4986249;28;20927;-69
2023/09/28 03:25:39;;;;;;;4.30;1.90;;;;;;;;;;4995006;28;20444;-70
2023/09/28 03:28:07;;;;;;;3.73;1.90;;;;;;;;;;4980185;28;20484;-70
2023/09/28 03:30:33;;;;;;;3.07;1.90;;;;;;;;;;4985881;28;20563;-70
2023/09/28 03:33:01;;;;;;;3.70;1.87;;;;;;;;;;4994439;28;20819;-71
2023/09/28 03:35:27;;;;;;;4.03;2.00;;;;;;;;;;4995217;28;20475;-70
2023/09/28 03:37:56;;;;;;;3.13;1.63;;;;;;;;;;4984041;28;20440;-70
2023/09/28 03:40:33;;;;;;;4.77;2.83;;;;;;;;;;4987277;28;20912;-70
2023/09/28 03:43:00;;;;;;;3.50;2.07;;;;;;;;;;4982508;28;20441;-70
2023/09/28 03:45:27;;;;;;;4.13;1.60;;;;;;;;;;4994843;28;20488;-70
2023/09/28 03:47:55;;;;;;;3.40;1.63;;;;;;;;;;4983335;28;20489;-69
2023/09/28 03:50:22;;;;;;;3.53;1.80;;;;;;;;;;4992237;28;20492;-70
2023/09/28 03:52:50;;;;;;;3.77;2.10;;;;;;;;;;4978152;28;20504;-70
2023/09/28 03:55:18;;;;;;;7.33;2.27;;;;;;;;;;4993505;28;20838;-69
2023/09/28 03:57:49;;;;;;;4.20;2.40;;;;;;;;;;4981938;28;21276;-70
2023/09/28 04:00:17;;;;;;;5.03;1.97;;;;;;;;;;4989321;28;20856;-70
2023/09/28 04:02:45;;;;;;;2.63;1.70;;;;;;;;;;4994856;28;20562;-70
2023/09/28 04:05:13;;;;;;;2.90;1.50;;;;;;;;;;4993750;28;20895;-69
2023/09/28 04:07:42;;;;;;;2.20;1.43;;;;;;;;;;4982593;28;20477;-69
2023/09/28 04:10:12;;;;;;;4.10;1.90;;;;;;;;;;4981526;28;20514;-70
2023/09/28 04:12:40;;;;;;;3.77;2.30;;;;;;;;;;4986844;28;20457;-69
2023/09/28 04:15:09;;;;;;;4.83;1.83;;;;;;;;;;4988742;28;20464;-69
2023/09/28 04:17:37;;;;;;;2.70;1.53;;;;;;;;;;4975810;28;20458;-70
2023/09/28 04:20:06;;;;;;;2.63;1.70;;;;;;;;;;4989007;28;20491;-70
2023/09/28 04:22:33;;;;;;;3.80;1.80;;;;;;;;;;4990307;28;20450;-69
2023/09/28 04:25:00;;;;;;;2.13;1.67;;;;;;;;;;4992822;28;20548;-71
2023/09/28 04:27:27;;;;;;;3.40;1.90;;;;;;;;;;4989269;28;20590;-70
2023/09/28 04:29:56;;;;;;;4.07;1.80;;;;;;;;;;4981385;28;20544;-70
2023/09/28 04:32:27;;;;;;;1.90;1.30;;;;;;;;;;4984631;28;20448;-70
2023/09/28 04:34:54;;;;;;;2.80;2.00;;;;;;;;;;4992113;28;20510;-70
2023/09/28 04:37:25;;;;;;;4.10;2.40;;;;;;;;;;4986866;28;20982;-70
2023/09/28 04:39:53;;;;;;;3.90;2.00;;;;;;;;;;4975022;28;20483;-71
2023/09/28 04:42:22;;;;;;;3.17;1.83;;;;;;;;;;4992988;28;20507;-70
2023/09/28 04:44:49;;;;;;;1.97;1.30;;;;;;;;;;4992229;28;20543;-70
2023/09/28 04:47:17;;;;;;;3.00;1.90;;;;;;;;;;4986320;28;20882;-70
2023/09/28 04:49:46;;;;;;;3.57;1.50;;;;;;;;;;4988667;28;20476;-68
2023/09/28 04:52:17;;;;;;;2.80;1.63;;;;;;;;;;4994568;28;20516;-69
2023/09/28 04:54:44;;;;;;;2.90;1.73;;;;;;;;;;4994891;28;20425;-69
2023/09/28 04:57:11;;;;;;;2.90;1.90;;;;;;;;;;4993262;28;20452;-69
2023/09/28 04:59:39;;;;;;;3.10;2.30;;;;;;;;;;4985646;28;20497;-70
2023/09/28 05:02:06;;;;;;;2.93;2.20;;;;;;;;;;5008805;28;20459;-70
2023/09/28 05:04:33;;;;;;;5.43;2.10;;;;;;;;;;4989382;28;20511;-70
2023/09/28 05:07:01;;;;;;;3.57;2.13;;;;;;;;;;5004635;28;20464;-69
2023/09/28 05:09:30;;;;;;;3.93;2.23;;;;;;;;;;4989071;28;20820;-68
2023/09/28 05:12:00;;;;;;;2.87;1.83;;;;;;;;;;4993087;28;20457;-69
2023/09/28 05:14:27;;;;;;;10.90;2.63;;;;;;;;;;4977445;28;20455;-67
2023/09/28 05:16:54;;;;;;;5.20;2.10;;;;;;;;;;4989196;28;20902;-73
2023/09/28 05:19:22;;;;;;;3.10;2.00;;;;;;;;;;4978936;28;20466;-67
2023/09/28 05:21:49;;;;;;;4.53;2.33;;;;;;;;;;4988476;28;20441;-68
2023/09/28 05:24:17;;;;;;;3.53;2.20;;;;;;;;;;4990462;28;20939;-66
2023/09/28 05:26:44;;;;;;;4.77;1.90;;;;;;;;;;4991604;28;20464;-67
2023/09/28 05:29:11;;;;;;;3.00;1.80;;;;;;;;;;4993793;28;20496;-67
2023/09/28 05:31:38;;;;;;;3.40;2.17;;;;;;;;;;4982129;28;20469;-67
2023/09/28 05:34:05;;;;;;;2.50;1.50;;;;;;;;;;4992168;28;20469;-67
2023/09/28 05:36:32;;;;;;;2.67;1.77;;;;;;;;;;4983999;28;20445;-67
2023/09/28 05:38:59;;;;;;;3.10;1.77;;;;;;;;;;4987811;28;20477;-67
2023/09/28 05:41:28;;;;;;;3.53;2.13;;;;;;;;;;4986038;28;20449;-67
2023/09/28 05:43:55;;;;;;;3.83;2.00;;;;;;;;;;4994359;28;20475;-67
2023/09/28 05:46:22;;;;;;;3.47;2.50;;;;;;;;;;4994824;28;20444;-66
2023/09/28 05:48:50;;;;;;;4.23;2.13;;;;;;;;;;4988123;28;20485;-68
2023/09/28 05:51:17;;;;;;;3.80;2.00;;;;;;;;;;4996625;28;20445;-67
2023/09/28 05:53:44;;;;;;;3.20;2.00;;;;;;;;;;4989192;28;20468;-67
2023/09/28 05:56:11;;;;;;;3.23;2.20;;;;;;;;;;4984825;28;20446;-67
2023/09/28 05:58:40;;;;;;;2.83;1.80;;;;;;;;;;4991764;28;20463;-67
2023/09/28 06:01:07;;;;;;;2.60;1.53;;;;;;;;;;4981725;28;20445;-67
2023/09/28 06:03:36;;;;;;;3.50;1.73;;;;;;;;;;4993545;28;20500;-67
2023/09/28 06:06:13;;;;;;;3.97;2.57;;;;;;;;;;4987735;28;20517;-67
2023/09/28 06:08:41;;;;;;;2.97;2.03;;;;;;;;;;4993882;28;20550;-67
2023/09/28 06:11:12;;;;;;;3.47;1.80;;;;;;;;;;4980978;28;20538;-67
2023/09/28 06:13:41;;;;;;;2.53;1.57;;;;;;;;;;4987411;28;20444;-67
2023/09/28 06:16:08;;;;;;;3.17;1.93;;;;;;;;;;4987900;28;20473;-67
2023/09/28 06:18:36;;;;;;;5.17;2.30;;;;;;;;;;4993638;28;20559;-68
2023/09/28 06:21:03;;;;;;;2.80;2.00;;;;;;;;;;4980698;28;20991;-68
2023/09/28 06:23:30;;;;;;;4.87;2.27;;;;;;;;;;4992387;28;20449;-67
2023/09/28 06:25:57;;;;;;;4.87;2.40;;;;;;;;;;4992373;28;20472;-67
2023/09/28 06:28:24;;;;;;;7.43;2.87;;;;;;;;;;4991347;28;20902;-68
2023/09/28 06:30:56;;;;;;;6.37;2.90;;;;;;;;;;4995288;28;20872;-67
2023/09/28 06:33:24;;;;;;;3.47;2.17;;;;;;;;;;4993876;28;20460;-68
2023/09/28 06:35:51;;;;;;;6.47;2.37;;;;;;;;;;4992101;28;20461;-67
2023/09/28 06:38:18;;;;;;;6.30;3.33;;;;;;;;;;4993996;28;20465;-66
2023/09/28 06:40:48;;;;;;;4.90;2.93;;;;;;;;;;4994299;28;20950;-66
2023/09/28 06:43:15;;;;;;;4.53;2.47;;;;;;;;;;4994139;28;20449;-66
2023/09/28 06:45:43;;;;;;;7.80;2.53;;;;;;;;;;4994363;28;20437;-65
2023/09/28 06:48:12;;;;;;;5.03;2.70;;;;;;;;;;4996402;28;20481;-66
2023/09/28 06:50:40;;;;;;;5.13;2.63;;;;;;;;;;4991056;28;20441;-66
2023/09/28 06:53:07;;;;;;;4.77;2.60;;;;;;;;;;4992379;28;20481;-66
2023/09/28 06:55:35;;;;;;;4.17;2.47;;;;;;;;;;4993163;28;20908;-67
2023/09/28 06:58:06;;;;;;;5.43;2.60;;;;;;;;;;4987947;28;20536;-66
2023/09/28 07:00:33;;;;;;;4.90;2.50;;;;;;;;;;4998409;28;20452;-67
2023/09/28 07:03:00;;;;;;;6.70;2.33;;;;;;;;;;4995877;28;20476;-66
2023/09/28 07:05:28;;;;;;;4.30;2.80;;;;;;;;;;4999040;28;20449;-66
2023/09/28 07:07:55;;;;;;;3.90;2.47;;;;;;;;;;4997043;28;20488;-66
2023/09/28 07:10:23;;;;;;;5.10;2.67;;;;;;;;;;4991660;28;20476;-67
2023/09/28 07:12:50;;;;;;;4.77;2.23;;;;;;;;;;4984925;28;20453;-66
2023/09/28 07:15:17;;;;;;;4.37;2.80;;;;;;;;;;4988095;28;20469;-66
2023/09/28 07:17:45;;;;;;;5.23;2.23;;;;;;;;;;4990379;28;20817;-67
2023/09/28 07:20:15;;;;;;;5.50;1.97;;;;;;;;;;4983867;28;20553;-67
2023/09/28 07:22:43;;;;;;;3.50;2.00;;;;;;;;;;4997030;28;20483;-66
2023/09/28 07:25:10;;;;;;;3.57;2.00;;;;;;;;;;4987100;28;20441;-66
2023/09/28 07:27:38;;;;;;;5.83;2.60;;;;;;;;;;4995091;28;20459;-66
2023/09/28 07:30:06;;;;;;;3.70;2.37;;;;;;;;;;4987399;28;20520;-66
2023/09/28 07:32:33;;;;;;;3.80;1.80;;;;;;;;;;4997934;28;20491;-68
2023/09/28 07:35:00;;;;;;;3.30;2.03;;;;;;;;;;4987099;28;20458;-66
2023/09/28 07:37:27;;;;;;;5.47;2.67;;;;;;;;;;4991282;28;20445;-67
2023/09/28 07:39:56;;;;;;;6.87;2.53;;;;;;;;;;4987252;28;20472;-67
2023/09/28 07:42:23;;;;;;;3.30;2.03;;;;;;;;;;4985961;28;20461;-66
2023/09/28 07:44:51;;;;;;;5.67;2.50;;;;;;;;;;4986478;28;20453;-67
2023/09/28 07:47:18;;;;;;;3.97;2.00;;;;;;;;;;4989793;28;20460;-66
2023/09/28 07:49:46;;;;;;;3.97;2.03;;;;;;;;;;4993265;28;20481;-66
2023/09/28 07:52:13;;;;;;;6.73;2.47;;;;;;;;;;4999155;28;20441;-66
2023/09/28 07:54:40;;;;;;;4.13;2.47;;;;;;;;;;4994364;28;20440;-67
2023/09/28 07:57:08;;;;;;;4.63;2.27;;;;;;;;;;4986617;28;20674;-67
2023/09/28 07:59:36;;;;;;;5.50;2.70;;;;;;;;;;4998255;28;20461;-66
2023/09/28 08:02:04;;;;;;;7.57;2.67;;;;;;;;;;4987030;28;20869;-66
2023/09/28 08:04:31;;;;;;;7.13;3.30;;;;;;;;;;4996780;28;20452;-67
2023/09/28 08:06:59;;;;;;;6.73;3.43;;;;;;;;;;4987045;28;20492;-67
2023/09/28 08:09:26;;;;;;;5.27;2.90;;;;;;;;;;4992653;28;20493;-67
2023/09/28 08:11:53;;;;;;;4.47;2.63;;;;;;;;;;4997867;28;20843;-67
2023/09/28 08:14:22;;;;;;;10.27;3.20;;;;;;;;;;4996140;28;20449;-67
2023/09/28 08:16:50;;;;;;;7.00;3.30;;;;;;;;;;4985544;28;20458;-67
2023/09/28 08:19:18;;;;;;;6.33;3.27;;;;;;;;;;4986429;28;21008;-67
2023/09/28 08:21:45;;;;;;;8.33;4.60;;;;;;;;;;4988589;28;20467;-67
2023/09/28 08:24:12;;;;;;;5.13;3.40;;;;;;;;;;4993758;28;20445;-67
2023/09/28 08:26:40;;;;;;;7.00;3.40;;;;;;;;;;4987442;28;20465;-66
2023/09/28 08:29:07;;;;;;;5.77;3.33;;;;;;;;;;4986181;28;20955;-67
2023/09/28 08:31:36;;;;;;;4.30;2.80;;;;;;;;;;4987399;28;20448;-67
2023/09/28 08:34:03;;;;;;;4.37;2.80;;;;;;;;;;4993248;28;20468;-67
2023/09/28 08:36:30;;;;;;;4.23;2.70;;;;;;;;;;4996197;28;20501;-66
2023/09/28 08:38:58;;;;;;;5.03;2.73;;;;;;;;;;4986314;28;20453;-67
2023/09/28 08:41:29;;;;;;;6.77;3.73;;;;;;;;;;4987791;28;21006;-67
2023/09/28 08:44:02;;;;;;;4.60;3.67;;;;;;;;;;4995674;28;20468;-67
2023/09/28 08:46:32;;;;;;;6.27;4.27;;;;;;;;;;4982319;28;20521;-67
2023/09/28 08:49:02;;;;;;;6.43;3.40;;;;;;;;;;4989572;28;20482;-67
2023/09/28 08:51:31;;;;;;;6.70;3.30;;;;;;;;;;4993620;28;20460;-66
2023/09/28 08:53:59;;;;;;;7.83;4.40;;;;;;;;;;4993784;28;20462;-66
2023/09/28 08:56:26;;;;;;;7.63;4.00;;;;;;;;;;4980140;28;20445;-66
2023/09/28 08:58:54;;;;;;;9.13;4.40;;;;;;;;;;4994409;28;20484;-66
2023/09/28 09:01:21;;;;;;;4.63;2.60;;;;;;;;;;4989848;28;20811;-66
2023/09/28 09:03:48;;;;;;;5.30;2.87;;;;;;;;;;4993455;28;20465;-67
2023/09/28 09:06:16;;;;;;;5.00;2.37;;;;;;;;;;4992530;28;20527;-67
2023/09/28 09:08:48;;;;;;;5.03;3.37;;;;;;;;;;4993579;28;20862;-67
2023/09/28 09:11:16;;;;;;;3.90;2.30;;;;;;;;;;4993119;28;20457;-67
2023/09/28 09:13:50;;;;;;;6.50;3.13;;;;;;;;;;4984978;28;20446;-67
2023/09/28 09:16:17;;;;;;;5.90;2.83;;;;;;;;;;4988371;28;20480;-67
2023/09/28 09:18:44;;;;;;;4.90;3.20;;;;;;;;;;4984234;28;20461;-67
2023/09/28 09:21:11;;;;;;;4.97;3.17;;;;;;;;;;4987949;28;20924;-67
2023/09/28 09:23:40;;;;;;;2.83;1.80;;;;;;;;;;4986486;28;20453;-66
2023/09/28 09:26:17;;;;;;;3.13;2.20;;;;;;;;;;4981878;28;20449;-67
2023/09/28 09:28:46;;;;;;;3.60;2.67;;;;;;;;;;4994183;28;20516;-66
2023/09/28 09:31:14;;;;;;;3.90;2.47;;;;;;;;;;4984923;28;20446;-66
2023/09/28 09:33:41;;;;;;;4.37;2.37;;;;;;;;;;4977324;28;20593;-66
2023/09/28 09:36:08;;;;;;;4.20;2.67;;;;;;;;;;4987188;28;20450;-66
2023/09/28 09:38:35;;;;;;;3.50;2.17;;;;;;;;;;4990204;28;20477;-66
2023/09/28 09:41:05;;;;;;;17.33;3.77;;;;;;;;;;4992415;28;20449;-66
2023/09/28 09:43:34;;;;;;;3.33;2.00;;;;;;;;;;4991588;28;20908;-66
2023/09/28 09:46:03;;;;;;;3.33;2.37;;;;;;;;;;4977766;28;20858;-66
2023/09/28 09:48:32;;;;;;;3.93;2.40;;;;;;;;;;4989252;28;20484;-66
2023/09/28 09:50:59;;;;;;;4.00;1.97;;;;;;;;;;4994112;28;20457;-67
2023/09/28 09:53:27;;;;;;;3.53;1.67;;;;;;;;;;4989550;28;20442;-66
2023/09/28 09:55:55;;;;;;;3.90;2.43;;;;;;;;;;4985958;28;20862;-66
2023/09/28 09:58:29;;;;;;;3.07;2.17;;;;;;;;;;4993294;28;20487;-69
2023/09/28 10:00:56;;;;;;;6.03;2.80;;;;;;;;;;4987309;28;20441;-67
2023/09/28 10:03:24;;;;;;;5.60;3.93;;;;;;;;;;4983247;28;20441;-66
2023/09/28 10:05:52;;;;;;;4.20;2.40;;;;;;;;;;4993570;28;20468;-66
2023/09/28 10:08:20;;;;;;;2.70;2.00;;;;;;;;;;4987552;28;20469;-66
2023/09/28 10:10:48;;;;;;;4.77;2.30;;;;;;;;;;4981594;28;20829;-66
2023/09/28 10:13:15;;;;;;;3.83;2.10;;;;;;;;;;4982201;28;20453;-66
2023/09/28 10:15:45;;;;;;;2.63;1.57;;;;;;;;;;4990336;28;20441;-66
2023/09/28 10:18:15;;;;;;;6.00;2.17;;;;;;;;;;4979800;28;20500;-66
2023/09/28 10:20:43;;;;;;;4.13;2.07;;;;;;;;;;4977518;28;20435;-67
2023/09/28 10:23:14;;;;;;;2.87;2.03;;;;;;;;;;4992870;28;20453;-66
2023/09/28 10:25:55;;;;;;;13.93;2.47;;;;;;;;;;4979924;28;20446;-66
2023/09/28 10:28:22;;;;;;;2.83;1.70;;;;;;;;;;4992265;28;20472;-66
2023/09/28 10:31:02;;;;;;;2.87;1.73;;;;;;;;;;4989724;28;20480;-65
2023/09/28 10:33:29;;;;;;;2.70;1.80;;;;;;;;;;4982037;28;20444;-66
2023/09/28 10:36:12;;;;;;;3.10;1.83;;;;;;;;;;4986972;28;20449;-67
2023/09/28 10:38:40;;;;;;;4.37;2.37;;;;;;;;;;4982503;28;20504;-67
2023/09/28 10:41:07;;;;;;;3.57;2.20;;;;;;;;;;4979715;28;20440;-67
2023/09/28 10:43:35;;;;;;;4.13;2.43;;;;;;;;;;4982501;28;20449;-66
2023/09/28 10:46:07;;;;;;;3.57;2.10;;;;;;;;;;4986242;28;20442;-66
2023/09/28 10:48:39;;;;;;;4.40;2.20;;;;;;;;;;4978031;28;20469;-66
2023/09/28 10:51:09;;;;;;;4.50;2.33;;;;;;;;;;4989941;28;20986;-67
2023/09/28 10:53:36;;;;;;;3.60;1.70;;;;;;;;;;4980043;28;20449;-66
2023/09/28 10:56:05;;;;;;;4.07;2.50;;;;;;;;;;4986236;28;20446;-65
2023/09/28 10:58:32;;;;;;;6.80;2.57;;;;;;;;;;4986240;28;20476;-66
2023/09/28 11:01:04;;;;;;;3.90;2.20;;;;;;;;;;4983153;28;20441;-66
2023/09/28 11:03:33;;;;;;;3.27;2.50;;;;;;;;;;4979825;28;20454;-73
2023/09/28 11:06:02;;;;;;;5.60;2.70;;;;;;;;;;4984079;28;20446;-66
2023/09/28 11:08:30;;;;;;;4.27;2.50;;;;;;;;;;4988019;28;20468;-67
2023/09/28 11:10:58;;;;;;;4.90;2.43;;;;;;;;;;4988512;28;20481;-70
2023/09/28 11:13:26;;;;;;;2.80;2.03;;;;;;;;;;4978277;28;20457;-71
2023/09/28 11:15:53;;;;;;;2.83;1.90;;;;;;;;;;4983530;28;20996;-71
2023/09/28 11:18:20;;;;;;;4.70;2.93;;;;;;;;;;4989028;28;20941;-71
2023/09/28 11:20:49;;;;;;;5.03;2.60;;;;;;;;;;4987176;28;20461;-71
2023/09/28 11:23:18;;;;;;;3.07;2.23;;;;;;;;;;4990049;28;20451;-71
2023/09/28 11:25:45;;;;;;;3.23;2.20;;;;;;;;;;4988956;28;20463;-71
2023/09/28 11:28:12;;;;;;;6.10;2.50;;;;;;;;;;4989712;28;20453;-71
2023/09/28 11:30:40;;;;;;;5.77;2.73;;;;;;;;;;4980677;28;20576;-71
2023/09/28 11:33:07;;;;;;;2.83;2.10;;;;;;;;;;4988951;28;20457;-71
2023/09/28 11:35:35;;;;;;;4.00;2.53;;;;;;;;;;4986949;28;20449;-71
2023/09/28 11:38:09;;;;;;;6.00;2.40;;;;;;;;;;4991322;28;20855;-72
2023/09/28 11:40:37;;;;;;;6.43;2.30;;;;;;;;;;4985852;28;20484;-71
2023/09/28 11:43:04;;;;;;;4.80;2.20;;;;;;;;;;4989869;28;20453;-71
2023/09/28 11:45:33;;;;;;;2.93;1.50;;;;;;;;;;4988954;28;20492;-71
2023/09/28 11:48:05;;;;;;;3.77;2.27;;;;;;;;;;4989470;28;20448;-71
2023/09/28 11:50:33;;;;;;;5.07;2.80;;;;;;;;;;4992433;28;20512;-71
2023/09/28 11:53:00;;;;;;;3.73;1.67;;;;;;;;;;4983978;28;20818;-71
2023/09/28 11:55:28;;;;;;;4.47;2.30;;;;;;;;;;4995968;28;20444;-72
2023/09/28 11:57:59;;;;;;;4.00;1.80;;;;;;;;;;4989030;28;20449;-72
2023/09/28 12:00:35;;;;;;;5.20;2.47;;;;;;;;;;4980261;28;20441;-72
2023/09/28 12:03:03;;;;;;;18.40;7.80;;;;;;;;;;4983953;28;20528;-72
2023/09/28 12:05:31;;;;;;;3.80;2.03;;;;;;;;;;4992635;28;20467;-72
2023/09/28 12:07:58;;;;;;;3.93;2.40;;;;;;;;;;4994799;28;20525;-71
2023/09/28 12:10:25;;;;;;;3.10;2.33;;;;;;;;;;4995229;28;20487;-71
2023/09/28 12:12:55;;;;;;;3.37;2.23;;;;;;;;;;5002639;28;20805;-70
2023/09/28 12:15:24;;;;;;;6.03;1.73;;;;;;;;;;4990843;28;20594;-70
2023/09/28 12:17:51;;;;;;;4.67;2.43;;;;;;;;;;4995406;28;20523;-70
2023/09/28 12:20:18;;;;;;;4.00;1.87;;;;;;;;;;4995686;28;20835;-69
2023/09/28 12:22:45;;;;;;;5.40;1.90;;;;;;;;;;4995020;28;20461;-72
2023/09/28 12:25:13;;;;;;;3.03;2.00;;;;;;;;;;4989480;28;20936;-71
2023/09/28 12:27:44;;;;;;;2.50;1.63;;;;;;;;;;4987426;28;20543;-71
2023/09/28 12:30:18;;;;;;;3.70;2.13;;;;;;;;;;4991370;28;20484;-71
2023/09/28 12:32:46;;;;;;;2.90;2.60;;;;;;;;;;4982292;28;20450;-71
2023/09/28 12:35:14;;;;;;;4.50;2.40;;;;;;;;;;4985559;28;20473;-71
2023/09/28 12:37:41;;;;;;;4.30;2.20;;;;;;;;;;4986906;28;20499;-71
2023/09/28 12:40:11;;;;;;;4.37;2.03;;;;;;;;;;4992993;28;20465;-71
2023/09/28 12:42:39;;;;;;;3.07;1.77;;;;;;;;;;4987757;28;20476;-71
2023/09/28 12:45:07;;;;;;;4.07;2.30;;;;;;;;;;4982010;28;20520;-70
2023/09/28 12:47:35;;;;;;;3.50;1.70;;;;;;;;;;4987922;28;20452;-70
2023/09/28 12:50:03;;;;;;;3.07;1.97;;;;;;;;;;4993197;28;20492;-70
2023/09/28 12:52:30;;;;;;;2.90;2.23;;;;;;;;;;4995764;28;20456;-70
2023/09/28 12:54:57;;;;;;;2.60;2.07;;;;;;;;;;4976689;28;20449;-71
2023/09/28 12:57:24;;;;;;;4.23;2.30;;;;;;;;;;4989741;28;20449;-71
2023/09/28 12:59:52;;;;;;;5.27;2.00;;;;;;;;;;4991966;28;20464;-71
2023/09/28 13:02:23;;;;;;;4.57;2.10;;;;;;;;;;4992683;28;20445;-71
2023/09/28 13:04:52;;;;;;;5.80;1.60;;;;;;;;;;4981721;28;20486;-71
2023/09/28 13:07:19;;;;;;;3.30;1.63;;;;;;;;;;4981839;28;20445;-71
2023/09/28 13:09:46;;;;;;;3.13;1.80;;;;;;;;;;4975704;28;20863;-71
2023/09/28 13:12:14;;;;;;;3.67;1.83;;;;;;;;;;4987570;28;21169;-70
2023/09/28 13:14:43;;;;;;;2.50;2.00;;;;;;;;;;4987472;28;20449;-71
2023/09/28 13:17:11;;;;;;;3.67;2.20;;;;;;;;;;4977290;28;20452;-71
2023/09/28 13:19:40;;;;;;;4.00;1.77;;;;;;;;;;4991354;28;20247;-71
2023/09/28 13:22:09;;;;;;;2.23;1.63;;;;;;;;;;4982613;28;20452;-70
2023/09/28 13:24:36;;;;;;;7.20;1.90;;;;;;;;;;4983292;28;20799;-71
2023/09/28 13:27:05;;;;;;;2.70;1.60;;;;;;;;;;4989328;28;20452;-71
2023/09/28 13:29:32;;;;;;;3.17;1.60;;;;;;;;;;4979278;28;20504;-70
2023/09/28 13:32:00;;;;;;;2.60;2.10;;;;;;;;;;4978805;28;20449;-71
2023/09/28 13:34:28;;;;;;;4.20;1.40;;;;;;;;;;4994387;28;20205;-70
2023/09/28 13:36:55;;;;;;;1.90;1.43;;;;;;;;;;4982038;28;20592;-70
2023/09/28 13:39:27;;;;;;;4.27;1.40;;;;;;;;;;4985984;28;20552;-70
2023/09/28 13:41:57;;;;;;;2.00;1.10;;;;;;;;;;4991930;28;20198;-70
2023/09/28 13:44:24;;;;;;;3.10;1.70;;;;;;;;;;4993829;28;20223;-70
2023/09/28 13:46:53;;;;;;;2.33;1.50;;;;;;;;;;4979780;28;20213;-70
2023/09/28 13:49:21;;;;;;;2.77;1.50;;;;;;;;;;4985072;28;20221;-70
2023/09/28 13:51:48;;;;;;;2.37;1.53;;;;;;;;;;4980884;28;20221;-70
2023/09/28 13:54:15;;;;;;;3.47;1.50;;;;;;;;;;4985338;28;20563;-71
2023/09/28 13:56:47;;;;;;;4.90;1.20;;;;;;;;;;4980105;28;20675;-70
2023/09/28 13:59:14;;;;;;;3.10;1.73;;;;;;;;;;4991188;28;20227;-71
2023/09/28 14:01:43;;;;;;;2.03;1.20;;;;;;;;;;4987572;28;20198;-69
2023/09/28 14:04:11;;;;;;;3.35;2.03;;;;;;;;;;4992339;28;20647;-71
2023/09/28 14:06:38;;;;;;;1.90;1.67;;;;;;;;;;4980103;28;20252;-70
2023/09/28 14:09:10;;;;;;;2.83;1.80;;;;;;;;;;4990878;28;20336;-71
2023/09/28 14:11:38;;;;;;;7.32;5.45;;;;;;;;;;4980895;28;20661;-70
2023/09/28 14:14:07;;;;;;;4.25;2.40;;;;;;;;;;4990663;28;20528;-70
2023/09/28 14:16:34;;;;;;;2.30;1.43;;;;;;;;;;4981679;28;20205;-70
2023/09/28 14:19:01;;;;;;;2.33;1.70;;;;;;;;;;4987807;28;20711;-69
2023/09/28 14:21:28;;;;;;;2.53;1.90;;;;;;;;;;4985415;28;20286;-70
2023/09/28 14:23:57;;;;;;;3.50;1.83;;;;;;;;;;4986767;28;20209;-70
2023/09/28 14:26:24;;;;;;;3.33;1.67;;;;;;;;;;4981747;28;20606;-71
2023/09/28 14:28:52;;;;;;;2.95;1.60;;;;;;;;;;4977955;28;20237;-70
2023/09/28 14:31:21;;;;;;;3.58;1.70;;;;;;;;;;4982632;28;20256;-69
2023/09/28 14:33:48;;;;;;;1.90;1.40;;;;;;;;;;4976479;28;20283;-70
2023/09/28 14:36:15;;;;;;;3.05;1.88;;;;;;;;;;4985230;28;20210;-70
2023/09/28 14:38:44;;;;;;;3.55;1.85;;;;;;;;;;4992578;28;20269;-70
2023/09/28 14:41:11;;;;;;;3.78;1.80;;;;;;;;;;4981874;28;20198;-70
2023/09/28 14:43:38;;;;;;;2.30;1.40;;;;;;;;;;4977646;28;20212;-70
2023/09/28 14:46:05;;;;;;;2.65;1.67;;;;;;;;;;4982918;28;20232;-70
2023/09/28 14:48:35;;;;;;;2.50;1.50;;;;;;;;;;4981486;28;20233;-70